Time;durP1;ratioP1;P1;durP2;ratioP2;P2;SDS_P1;SDS_P2;PMS_P1;PMS_P2;Temp;Humidity;BMP_temperature;BMP_pressure;BME280_temperature;BME280_humidity;BME280_pressure;Samples;Min_cycle;Max_cycle;Signal;HPM_P1;HPM_P2
2020/12/23 00:00:08;;;;;;;8.55;6.22;;;11.20;87.90;;;;;;4990333;28;20366;-90
2020/12/23 00:02:34;;;;;;;8.63;5.80;;;11.20;87.90;;;;;;4976032;28;20050;-88
2020/12/23 00:05:00;;;;;;;11.88;7.95;;;11.30;87.90;;;;;;4975960;28;20428;-88
2020/12/23 00:07:26;;;;;;;8.27;6.00;;;11.30;87.80;;;;;;4976218;28;20031;-89
2020/12/23 00:09:51;;;;;;;12.88;8.65;;;11.30;87.70;;;;;;4981040;28;20069;-88
2020/12/23 00:12:17;;;;;;;8.98;6.45;;;11.30;87.60;;;;;;4989424;28;20108;-88
2020/12/23 00:14:43;;;;;;;7.22;5.10;;;11.30;87.70;;;;;;4985913;28;20037;-89
2020/12/23 00:17:08;;;;;;;8.23;6.22;;;11.30;87.70;;;;;;4986101;28;20034;-91
2020/12/23 00:19:34;;;;;;;10.80;7.32;;;11.30;87.50;;;;;;4980253;28;20109;-91
2020/12/23 00:22:00;;;;;;;13.05;9.35;;;11.30;87.70;;;;;;4982540;28;20038;-91
2020/12/23 00:24:26;;;;;;;7.82;5.60;;;11.30;87.70;;;;;;4992679;28;20023;-89
2020/12/23 00:26:51;;;;;;;10.40;7.32;;;11.20;88.40;;;;;;4991142;28;20031;-94
2020/12/23 00:29:17;;;;;;;13.02;7.80;;;11.20;87.80;;;;;;4983331;28;20027;-92
2020/12/23 00:31:43;;;;;;;10.40;7.40;;;11.20;87.90;;;;;;4992319;28;20057;-90
2020/12/23 00:34:08;;;;;;;13.75;8.88;;;11.20;87.90;;;;;;4987979;28;20035;-89
2020/12/23 00:36:34;;;;;;;8.70;6.57;;;11.20;88.00;;;;;;4976555;28;20051;-95
2020/12/23 00:39:00;;;;;;;12.07;7.30;;;11.20;88.00;;;;;;4991100;28;20073;-94
2020/12/23 00:41:26;;;;;;;7.85;6.07;;;11.20;88.00;;;;;;4975839;28;20043;-90
2020/12/23 00:43:51;;;;;;;15.20;7.90;;;11.30;88.00;;;;;;4975196;28;20026;-87
2020/12/23 00:46:17;;;;;;;12.10;7.82;;;11.20;88.10;;;;;;4973266;28;20026;-86
2020/12/23 00:48:43;;;;;;;7.72;4.43;;;11.20;88.20;;;;;;4973340;28;20046;-86
2020/12/23 00:51:10;;;;;;;10.25;6.68;;;11.30;88.20;;;;;;4972900;28;20560;-86
2020/12/23 00:53:36;;;;;;;7.30;4.70;;;11.30;88.10;;;;;;4976369;28;20481;-87
2020/12/23 00:56:02;;;;;;;13.35;8.52;;;11.30;88.00;;;;;;4973540;28;20054;-87
2020/12/23 00:58:27;;;;;;;12.65;7.68;;;11.30;87.90;;;;;;4974070;28;20027;-86
2020/12/23 01:00:53;;;;;;;20.38;10.35;;;11.30;87.90;;;;;;4991317;28;20633;-86
2020/12/23 01:03:18;;;;;;;14.57;9.15;;;11.30;87.90;;;;;;4986967;28;20499;-87
2020/12/23 01:05:44;;;;;;;9.63;6.10;;;11.30;88.10;;;;;;4987675;28;20035;-87
2020/12/23 01:08:09;;;;;;;13.90;8.68;;;11.30;88.10;;;;;;4984513;28;20037;-88
2020/12/23 01:10:35;;;;;;;11.55;6.65;;;11.30;88.10;;;;;;4983558;28;20730;-87
2020/12/23 01:13:00;;;;;;;13.52;8.65;;;11.30;88.00;;;;;;4976457;28;20023;-87
2020/12/23 01:15:26;;;;;;;8.63;5.10;;;11.30;88.10;;;;;;4977374;28;20039;-85
2020/12/23 01:17:51;;;;;;;13.82;9.07;;;11.40;88.10;;;;;;4978023;28;20022;-88
2020/12/23 01:20:17;;;;;;;15.25;8.85;;;11.30;88.20;;;;;;4980519;28;20049;-85
2020/12/23 01:22:42;;;;;;;13.27;6.85;;;11.30;88.20;;;;;;4978740;28;20019;-84
2020/12/23 01:25:08;;;;;;;21.15;9.60;;;11.40;88.30;;;;;;4991840;28;20090;-84
2020/12/23 01:27:33;;;;;;;23.35;8.07;;;11.30;88.10;;;;;;4987404;28;20019;-85
2020/12/23 01:29:59;;;;;;;13.68;7.30;;;11.30;88.20;;;;;;4988820;28;20031;-85
2020/12/23 01:32:24;;;;;;;16.42;8.82;;;11.40;88.30;;;;;;4985844;28;20030;-85
2020/12/23 01:34:50;;;;;;;12.30;7.32;;;11.40;88.20;;;;;;4974926;28;20059;-85
2020/12/23 01:37:15;;;;;;;27.63;7.47;;;11.40;88.10;;;;;;4987981;28;20022;-84
2020/12/23 01:39:41;;;;;;;13.18;7.47;;;11.40;88.00;;;;;;4972392;28;20512;-86
2020/12/23 01:42:07;;;;;;;22.30;6.65;;;11.40;88.00;;;;;;4975540;28;20066;-86
2020/12/23 01:44:36;;;;;;;15.90;6.32;;;11.40;88.10;;;;;;4976252;28;20026;-87
2020/12/23 01:47:08;;;;;;;16.27;8.10;;;11.30;88.10;;;;;;4975765;28;20130;-85
2020/12/23 01:49:34;;;;;;;7.18;4.50;;;11.30;88.20;;;;;;4977419;28;20497;-86
2020/12/23 01:52:00;;;;;;;13.75;8.07;;;11.30;88.80;;;;;;4992056;28;20031;-86
2020/12/23 01:54:26;;;;;;;18.33;9.25;;;11.30;88.20;;;;;;5010013;28;20069;-86
2020/12/23 01:56:56;;;;;;;12.18;6.03;;;11.30;88.20;;;;;;4990124;28;20058;-86
2020/12/23 01:59:22;;;;;;;22.23;7.00;;;11.30;88.30;;;;;;4987998;28;20066;-86
2020/12/23 02:01:49;;;;;;;16.65;7.35;;;11.30;88.30;;;;;;4983956;28;20062;-86
2020/12/23 02:04:15;;;;;;;19.38;8.77;;;11.40;88.30;;;;;;4987855;28;20023;-86
2020/12/23 02:06:41;;;;;;;23.67;9.02;;;11.30;88.20;;;;;;4992900;28;20022;-86
2020/12/23 02:09:08;;;;;;;34.67;8.75;;;11.30;88.30;;;;;;4989865;28;20076;-86
2020/12/23 02:11:34;;;;;;;13.38;6.97;;;11.40;88.30;;;;;;4989172;28;20047;-86
2020/12/23 02:13:59;;;;;;;10.88;4.25;;;11.40;88.40;;;;;;4974216;28;20023;-86
2020/12/23 02:16:25;;;;;;;15.82;6.43;;;11.40;88.30;;;;;;4976734;28;20142;-86
2020/12/23 02:18:50;;;;;;;14.10;6.78;;;11.40;88.20;;;;;;4977501;28;20073;-86
2020/12/23 02:21:16;;;;;;;19.98;9.00;;;11.40;88.20;;;;;;4974842;28;20034;-87
2020/12/23 02:23:42;;;;;;;13.15;7.78;;;11.30;88.30;;;;;;4992005;28;20022;-86
2020/12/23 02:26:08;;;;;;;16.98;7.78;;;11.30;88.40;;;;;;4982616;28;20045;-87
2020/12/23 02:28:33;;;;;;;13.50;7.38;;;11.40;88.40;;;;;;4984675;28;20104;-86
2020/12/23 02:31:03;;;;;;;29.92;8.85;;;11.40;88.30;;;;;;4991832;28;20026;-87
2020/12/23 02:33:28;;;;;;;28.15;9.77;;;11.40;88.30;;;;;;4975804;28;20085;-87
2020/12/23 02:35:54;;;;;;;16.45;8.18;;;11.40;88.30;;;;;;4975616;28;20077;-87
2020/12/23 02:38:19;;;;;;;16.65;7.43;;;11.40;88.40;;;;;;4983483;28;20031;-87
2020/12/23 02:40:45;;;;;;;14.32;7.18;;;11.40;88.30;;;;;;4979505;28;20086;-87
2020/12/23 02:43:11;;;;;;;16.40;7.18;;;11.40;88.20;;;;;;4973341;28;20114;-87
2020/12/23 02:45:36;;;;;;;35.90;9.30;;;11.40;88.20;;;;;;4971825;28;20019;-87
2020/12/23 02:48:02;;;;;;;18.00;6.75;;;11.40;88.20;;;;;;4978818;28;20156;-87
2020/12/23 02:50:27;;;;;;;12.95;5.32;;;11.40;88.20;;;;;;4972845;28;20100;-87
2020/12/23 02:52:53;;;;;;;43.97;10.77;;;11.40;88.20;;;;;;4980791;28;20026;-87
2020/12/23 02:55:19;;;;;;;32.42;8.88;;;11.50;88.20;;;;;;4974314;28;20074;-86
2020/12/23 02:57:44;;;;;;;20.33;8.13;;;11.50;88.20;;;;;;4977743;28;20495;-86
2020/12/23 03:00:10;;;;;;;18.95;7.53;;;11.50;88.20;;;;;;4990009;28;20527;-86
2020/12/23 03:02:35;;;;;;;16.85;8.05;;;11.50;88.10;;;;;;4987592;28;20022;-86
2020/12/23 03:05:01;;;;;;;24.92;9.52;;;11.50;88.00;;;;;;4972555;28;20071;-86
2020/12/23 03:07:27;;;;;;;18.50;8.45;;;11.50;88.00;;;;;;4981908;28;20030;-86
2020/12/23 03:09:53;;;;;;;19.77;8.25;;;11.50;88.10;;;;;;4975694;28;20535;-86
2020/12/23 03:12:18;;;;;;;17.80;7.22;;;11.50;88.10;;;;;;4982370;28;20117;-86
2020/12/23 03:14:44;;;;;;;40.55;10.73;;;11.50;88.10;;;;;;4982768;28;20497;-87
2020/12/23 03:17:09;;;;;;;18.95;8.27;;;11.50;88.20;;;;;;4982314;28;20053;-86
2020/12/23 03:19:35;;;;;;;44.72;10.15;;;11.50;88.20;;;;;;4986582;28;20192;-86
2020/12/23 03:22:00;;;;;;;11.73;5.90;;;11.50;88.20;;;;;;4992073;28;20030;-86
2020/12/23 03:24:26;;;;;;;32.67;8.45;;;11.40;88.20;;;;;;4977353;28;20023;-86
2020/12/23 03:26:52;;;;;;;15.63;7.65;;;11.40;88.30;;;;;;4980178;28;20041;-85
2020/12/23 03:29:17;;;;;;;16.35;6.78;;;11.50;88.30;;;;;;4977070;28;20026;-86
2020/12/23 03:31:43;;;;;;;23.15;7.82;;;11.50;88.30;;;;;;4989697;28;20056;-86
2020/12/23 03:34:09;;;;;;;32.88;9.73;;;11.50;88.20;;;;;;4987431;28;20113;-87
2020/12/23 03:36:34;;;;;;;23.27;8.40;;;11.60;88.20;;;;;;4992330;28;20823;-86
2020/12/23 03:39:00;;;;;;;23.00;8.45;;;11.60;88.20;;;;;;4984181;28;20102;-87
2020/12/23 03:41:26;;;;;;;33.50;10.32;;;11.60;88.20;;;;;;4974600;28;20034;-87
2020/12/23 03:43:52;;;;;;;20.05;8.20;;;11.50;88.10;;;;;;4983992;28;20360;-87
2020/12/23 03:46:17;;;;;;;45.80;11.50;;;11.50;88.10;;;;;;4992253;28;20030;-87
2020/12/23 03:48:43;;;;;;;13.48;7.28;;;11.50;88.10;;;;;;4972620;28;20034;-86
2020/12/23 03:51:08;;;;;;;29.00;8.38;;;11.50;88.10;;;;;;4975001;28;20023;-87
2020/12/23 03:53:34;;;;;;;25.27;7.50;;;11.50;88.20;;;;;;4990101;28;20030;-86
2020/12/23 03:55:59;;;;;;;53.47;10.18;;;11.50;88.10;;;;;;4987937;28;20043;-86
2020/12/23 03:58:25;;;;;;;30.90;8.35;;;11.50;88.10;;;;;;4987355;28;20524;-86
2020/12/23 04:00:51;;;;;;;23.33;8.80;;;11.50;88.20;;;;;;4975420;28;20034;-86
2020/12/23 04:03:16;;;;;;;23.30;9.52;;;11.50;88.20;;;;;;4978793;28;20077;-87
2020/12/23 04:05:42;;;;;;;24.75;8.52;;;11.50;88.20;;;;;;4971204;28;20019;-86
2020/12/23 04:08:07;;;;;;;28.10;7.80;;;11.60;88.30;;;;;;4975302;28;20097;-86
2020/12/23 04:10:33;;;;;;;19.92;7.38;;;11.60;88.30;;;;;;4972371;28;20492;-86
2020/12/23 04:12:59;;;;;;;26.92;6.93;;;11.70;88.30;;;;;;4979463;28;20041;-86
2020/12/23 04:15:24;;;;;;;34.65;9.45;;;11.70;88.20;;;;;;4989130;28;20031;-86
2020/12/23 04:17:51;;;;;;;17.67;7.57;;;11.60;88.30;;;;;;4979579;28;20580;-85
2020/12/23 04:20:19;;;;;;;27.35;6.25;;;11.60;88.40;;;;;;4980483;28;20027;-86
2020/12/23 04:22:45;;;;;;;23.08;8.82;;;11.50;88.40;;;;;;4976163;28;20076;-86
2020/12/23 04:25:11;;;;;;;24.25;8.27;;;11.50;88.50;;;;;;4984925;28;20033;-86
2020/12/23 04:27:37;;;;;;;29.75;7.35;;;11.60;88.60;;;;;;4981541;28;20023;-86
2020/12/23 04:30:05;;;;;;;15.27;5.22;;;11.60;89.20;;;;;;4983548;28;20062;-86
2020/12/23 04:32:30;;;;;;;43.33;8.93;;;11.60;88.50;;;;;;4991028;28;20034;-85
2020/12/23 04:34:58;;;;;;;16.63;6.93;;;11.60;88.50;;;;;;4986424;28;20121;-85
2020/12/23 04:37:23;;;;;;;17.58;5.38;;;11.60;88.40;;;;;;4991196;28;20514;-85
2020/12/23 04:39:49;;;;;;;18.00;7.28;;;11.70;88.50;;;;;;4985491;28;20110;-86
2020/12/23 04:42:14;;;;;;;24.02;10.27;;;11.70;88.40;;;;;;4977224;28;20401;-86
2020/12/23 04:44:40;;;;;;;18.63;7.90;;;11.60;88.40;;;;;;4986910;28;20030;-87
2020/12/23 04:47:09;;;;;;;23.73;8.27;;;11.60;88.60;;;;;;4981025;28;20026;-86
2020/12/23 04:49:37;;;;;;;14.52;6.70;;;11.60;88.70;;;;;;4979481;28;20038;-87
2020/12/23 04:52:06;;;;;;;20.23;8.52;;;11.60;88.70;;;;;;4987240;28;20050;-87
2020/12/23 04:54:35;;;;;;;21.13;6.72;;;11.70;88.90;;;;;;4982901;28;20035;-87
2020/12/23 04:57:02;;;;;;;18.20;6.93;;;11.70;88.90;;;;;;4980239;28;20137;-86
2020/12/23 04:59:28;;;;;;;17.27;7.63;;;11.70;88.90;;;;;;4976615;28;20461;-87
2020/12/23 05:01:53;;;;;;;11.98;7.45;;;11.60;88.90;;;;;;4987926;28;20050;-86
2020/12/23 05:04:19;;;;;;;9.98;5.90;;;11.70;89.00;;;;;;4983225;28;20034;-87
2020/12/23 05:06:44;;;;;;;11.93;6.50;;;11.70;89.00;;;;;;4975990;28;20030;-86
2020/12/23 05:09:10;;;;;;;11.57;5.43;;;11.70;89.00;;;;;;4986760;28;20061;-87
2020/12/23 05:11:36;;;;;;;13.23;5.65;;;11.70;89.00;;;;;;4979842;28;20023;-87
2020/12/23 05:14:04;;;;;;;19.02;5.78;;;11.70;89.00;;;;;;4990398;28;20118;-87
2020/12/23 05:16:30;;;;;;;31.13;6.47;;;11.70;89.00;;;;;;4992471;28;20204;-87
2020/12/23 05:18:57;;;;;;;22.02;5.80;;;11.70;89.00;;;;;;4991552;28;20124;-87
2020/12/23 05:21:23;;;;;;;12.80;6.57;;;11.70;89.10;;;;;;4980350;28;20027;-86
2020/12/23 05:23:52;;;;;;;8.13;5.40;;;11.70;89.10;;;;;;4978377;28;20026;-86
2020/12/23 05:26:17;;;;;;;10.73;5.68;;;11.80;89.20;;;;;;4993335;28;20041;-87
2020/12/23 05:28:44;;;;;;;6.82;4.65;;;11.80;89.10;;;;;;4974993;28;20056;-86
2020/12/23 05:31:12;;;;;;;7.10;4.50;;;11.70;89.10;;;;;;4982769;28;20030;-86
2020/12/23 05:33:40;;;;;;;7.10;5.07;;;11.70;89.20;;;;;;4984729;28;20030;-86
2020/12/23 05:36:11;;;;;;;7.30;4.60;;;11.70;89.30;;;;;;4984026;28;20038;-85
2020/12/23 05:38:37;;;;;;;4.97;3.83;;;11.80;89.50;;;;;;4979971;28;20681;-85
2020/12/23 05:41:06;;;;;;;4.13;2.50;;;11.70;89.50;;;;;;4980760;28;20058;-86
2020/12/23 05:43:33;;;;;;;5.10;3.20;;;11.80;89.50;;;;;;4990859;28;20077;-86
2020/12/23 05:46:04;;;;;;;4.57;3.15;;;11.80;89.50;;;;;;4991230;28;20077;-87
2020/12/23 05:48:31;;;;;;;2.92;2.35;;;11.80;89.60;;;;;;4992033;28;20038;-86
2020/12/23 05:50:57;;;;;;;6.03;3.92;;;11.80;89.50;;;;;;4991390;28;20026;-86
2020/12/23 05:53:27;;;;;;;4.45;3.53;;;11.80;89.60;;;;;;4980282;28;20360;-86
2020/12/23 05:55:52;;;;;;;4.00;3.25;;;11.80;89.80;;;;;;4989277;28;20042;-86
2020/12/23 05:58:29;;;;;;;3.53;3.00;;;11.70;89.90;;;;;;4975090;28;20105;-86
2020/12/23 06:00:59;;;;;;;2.72;2.28;;;11.70;90.00;;;;;;4980700;28;20034;-85
2020/12/23 06:03:51;;;;;;;2.72;2.35;;;11.70;90.40;;;;;;4984068;28;20034;-86
2020/12/23 06:06:25;;;;;;;3.33;2.28;;;11.80;90.10;;;;;;4992446;28;20189;-86
2020/12/23 06:08:55;;;;;;;3.38;2.83;;;11.80;90.00;;;;;;4986091;28;20030;-86
2020/12/23 06:11:34;;;;;;;3.10;2.70;;;11.80;90.00;;;;;;4985433;28;20050;-86
2020/12/23 06:14:02;;;;;;;2.75;2.45;;;11.80;90.10;;;;;;4983936;28;20053;-85
2020/12/23 06:16:36;;;;;;;2.65;2.33;;;11.80;90.20;;;;;;4987370;28;20117;-86
2020/12/23 06:19:23;;;;;;;3.28;2.25;;;11.80;90.20;;;;;;4982583;28;20400;-86
2020/12/23 06:21:49;;;;;;;2.65;2.35;;;11.80;90.20;;;;;;4980005;28;20096;-87
2020/12/23 06:24:15;;;;;;;2.70;2.28;;;11.80;90.30;;;;;;4989675;28;20109;-86
2020/12/23 06:26:44;;;;;;;2.13;1.90;;;11.80;90.60;;;;;;4985752;28;20589;-88
2020/12/23 06:29:12;;;;;;;2.10;1.90;;;11.80;90.30;;;;;;4983859;28;20121;-87
2020/12/23 06:32:00;;;;;;;1.90;1.70;;;11.90;90.30;;;;;;4979690;28;20018;-87
2020/12/23 06:34:35;;;;;;;1.88;1.75;;;11.90;90.20;;;;;;4985805;28;20133;-87
2020/12/23 06:37:13;;;;;;;2.15;1.95;;;12.00;90.10;;;;;;4986020;28;20155;-86
2020/12/23 06:39:40;;;;;;;2.53;2.30;;;11.90;90.20;;;;;;4980454;28;20042;-86
2020/12/23 06:42:05;;;;;;;1.50;1.40;;;12.00;90.20;;;;;;4986715;28;20514;-86
2020/12/23 06:44:43;;;;;;;2.72;2.38;;;12.00;90.10;;;;;;4983068;28;20022;-86
2020/12/23 06:47:13;;;;;;;3.38;2.88;;;12.10;90.10;;;;;;4986125;28;20073;-86
2020/12/23 06:49:39;;;;;;;4.28;3.33;;;12.10;90.20;;;;;;4983542;28;20029;-86
2020/12/23 06:52:24;;;;;;;3.85;3.05;;;12.10;90.10;;;;;;4993952;28;20057;-87
2020/12/23 06:54:55;;;;;;;2.40;2.10;;;12.10;90.10;;;;;;4979948;28;20038;-87
2020/12/23 06:57:37;;;;;;;4.43;3.50;;;12.20;90.10;;;;;;4977907;28;20034;-87
2020/12/23 07:00:11;;;;;;;3.40;2.70;;;12.20;90.10;;;;;;4978769;28;20035;-88
2020/12/23 07:02:47;;;;;;;5.50;4.45;;;12.20;90.00;;;;;;4983901;28;20113;-90
2020/12/23 07:05:30;;;;;;;5.60;4.28;;;12.30;90.00;;;;;;4986485;28;20085;-86
2020/12/23 07:07:58;;;;;;;6.78;5.38;;;12.30;90.00;;;;;;4989434;28;20053;-88
2020/12/23 07:10:26;;;;;;;5.22;4.10;;;12.30;89.90;;;;;;4979484;28;20015;-87
2020/12/23 07:12:56;;;;;;;6.93;5.45;;;12.30;89.90;;;;;;4986969;28;20424;-87
2020/12/23 07:15:32;;;;;;;8.63;7.22;;;12.40;89.90;;;;;;4985765;28;20041;-87
2020/12/23 07:18:03;;;;;;;6.88;5.57;;;12.40;90.20;;;;;;4985192;28;20088;-88
2020/12/23 07:21:02;;;;;;;9.05;6.78;;;12.40;90.00;;;;;;4991730;28;20041;-87
2020/12/23 07:23:30;;;;;;;4.43;3.70;;;12.40;90.00;;;;;;4955077;28;20035;-87
2020/12/23 07:26:03;;;;;;;4.68;3.85;;;12.50;90.00;;;;;;4986084;28;20022;-86
2020/12/23 07:28:41;;;;;;;7.93;6.82;;;12.50;89.90;;;;;;4978312;28;20173;-86
2020/12/23 07:31:08;;;;;;;6.25;5.30;;;12.50;89.90;;;;;;4986660;28;20034;-86
2020/12/23 07:33:37;;;;;;;6.60;5.30;;;12.50;89.90;;;;;;4982399;28;20025;-86
2020/12/23 07:36:03;;;;;;;3.97;3.40;;;12.50;90.00;;;;;;4976703;28;20043;-89
2020/12/23 07:38:39;;;;;;;7.05;6.00;;;12.60;90.00;;;;;;4989345;28;20026;-84
2020/12/23 07:41:05;;;;;;;7.10;6.30;;;12.60;89.90;;;;;;4974403;28;20030;-87
2020/12/23 07:43:31;;;;;;;7.78;5.68;;;12.60;90.00;;;;;;4984487;28;20464;-87
2020/12/23 07:45:57;;;;;;;6.22;5.03;;;12.60;90.00;;;;;;4981306;28;20435;-86
2020/12/23 07:48:25;;;;;;;5.20;4.25;;;12.60;90.00;;;;;;4973632;28;20385;-86
2020/12/23 07:50:53;;;;;;;5.65;4.65;;;12.60;90.00;;;;;;4971426;28;20037;-87
2020/12/23 07:53:27;;;;;;;3.67;3.28;;;12.60;90.00;;;;;;4989636;28;20051;-87
2020/12/23 07:56:01;;;;;;;5.30;4.40;;;12.70;90.00;;;;;;4980027;28;20488;-85
2020/12/23 07:58:30;;;;;;;5.05;3.97;;;12.70;90.00;;;;;;4980793;28;20379;-87
2020/12/23 08:00:56;;;;;;;4.75;3.75;;;12.70;90.00;;;;;;4978467;28;20030;-87
2020/12/23 08:03:26;;;;;;;4.32;3.72;;;12.70;90.00;;;;;;4974323;28;20029;-88
2020/12/23 08:06:03;;;;;;;6.53;4.80;;;12.70;90.00;;;;;;4981354;28;20019;-86
2020/12/23 08:08:28;;;;;;;5.55;4.60;;;12.70;90.10;;;;;;4986634;28;20239;-87
2020/12/23 08:10:54;;;;;;;6.00;5.00;;;12.70;90.00;;;;;;4990031;28;20385;-87
2020/12/23 08:13:29;;;;;;;7.05;5.72;;;12.70;90.10;;;;;;4978853;28;20485;-87
2020/12/23 08:16:12;;;;;;;5.50;4.15;;;12.70;90.10;;;;;;4985334;28;20042;-87
2020/12/23 08:18:39;;;;;;;3.35;3.05;;;12.80;90.10;;;;;;4987606;28;20027;-89
2020/12/23 08:21:09;;;;;;;6.50;4.28;;;12.80;90.10;;;;;;4990147;28;20029;-89
2020/12/23 08:23:34;;;;;;;6.47;5.68;;;12.80;90.10;;;;;;4988122;28;20380;-88
2020/12/23 08:26:01;;;;;;;5.72;4.80;;;12.80;90.10;;;;;;4979750;28;20031;-88
2020/12/23 08:28:29;;;;;;;8.15;5.68;;;12.80;90.10;;;;;;4981842;28;20037;-89
2020/12/23 08:30:54;;;;;;;3.05;2.55;;;12.80;90.10;;;;;;4992161;28;20158;-89
2020/12/23 08:33:23;;;;;;;4.40;3.63;;;12.80;90.20;;;;;;5267557;23;20050;-90
2020/12/23 08:35:57;;;;;;;6.18;5.15;;;12.80;90.20;;;;;;4984480;28;20084;-90
2020/12/23 08:38:25;;;;;;;6.70;4.93;;;12.80;90.20;;;;;;4996938;28;20182;-91
2020/12/23 08:40:56;;;;;;;6.43;5.53;;;12.80;90.30;;;;;;5002784;28;20495;-92
2020/12/23 08:43:26;;;;;;;4.30;3.80;;;12.80;90.30;;;;;;4982805;28;20484;-91
2020/12/23 08:45:53;;;;;;;4.65;4.00;;;12.80;90.30;;;;;;4997509;28;20026;-88
2020/12/23 08:48:24;;;;;;;4.70;4.20;;;12.80;90.30;;;;;;4978172;28;20111;-89
2020/12/23 08:50:58;;;;;;;3.80;3.38;;;12.80;90.30;;;;;;4974226;28;20117;-90
2020/12/23 08:53:37;;;;;;;8.75;7.38;;;12.80;90.30;;;;;;4989338;28;20519;-87
2020/12/23 08:56:24;;;;;;;4.47;3.85;;;12.80;90.30;;;;;;4989588;28;20048;-90
2020/12/23 08:58:50;;;;;;;4.45;3.80;;;12.80;90.30;;;;;;4970566;28;20052;-91
2020/12/23 09:01:23;;;;;;;4.90;4.20;;;12.80;90.30;;;;;;4978394;28;20026;-91
2020/12/23 09:04:10;;;;;;;6.32;4.65;;;12.80;90.30;;;;;;4981548;28;20090;-89
2020/12/23 09:06:37;;;;;;;4.28;3.58;;;12.80;90.40;;;;;;4980413;28;20034;-90
2020/12/23 09:09:13;;;;;;;7.35;5.68;;;12.80;90.30;;;;;;5160035;23;20049;-90
2020/12/23 09:14:40;;;;;;;4.15;3.15;;;12.90;90.30;;;;;;5040198;23;20452;-91
2020/12/23 09:17:07;;;;;;;3.58;2.28;;;12.90;90.30;;;;;;4976107;28;20039;-91
2020/12/23 09:20:03;;;;;;;4.25;3.72;;;12.90;90.20;;;;;;4961213;28;20014;-91
2020/12/23 09:22:33;;;;;;;4.07;3.45;;;12.90;90.20;;;;;;4974391;28;20104;-92
2020/12/23 09:25:16;;;;;;;3.50;3.00;;;12.90;90.20;;;;;;4959676;28;20416;-89
2020/12/23 09:27:47;;;;;;;3.35;2.90;;;12.90;90.30;;;;;;4978969;28;20030;-90
2020/12/23 09:30:32;;;;;;;3.50;2.70;;;13.00;90.20;;;;;;4965265;28;20060;-92
2020/12/23 09:32:58;;;;;;;4.05;2.88;;;13.00;90.20;;;;;;4971562;23;20129;-91
2020/12/23 09:35:26;;;;;;;4.40;4.00;;;13.00;90.20;;;;;;4997247;28;20129;-91
2020/12/23 09:38:11;;;;;;;4.03;2.70;;;13.00;90.20;;;;;;4999850;28;20027;-93
2020/12/23 09:40:47;;;;;;;3.90;2.30;;;13.00;90.20;;;;;;4996356;28;20114;-94
2020/12/23 09:43:18;;;;;;;3.28;2.97;;;13.00;90.20;;;;;;4984471;28;20034;-90
2020/12/23 09:45:45;;;;;;;3.78;2.70;;;13.00;90.20;;;;;;4986661;28;20058;-94
2020/12/23 09:48:13;;;;;;;2.83;2.00;;;13.00;90.20;;;;;;4990694;28;20092;-94
2020/12/23 09:50:39;;;;;;;4.03;2.88;;;13.00;90.20;;;;;;4985413;28;20023;-90
2020/12/23 09:53:16;;;;;;;2.45;2.03;;;12.90;90.20;;;;;;4988898;28;20356;-92
2020/12/23 09:55:45;;;;;;;3.30;2.88;;;13.00;90.20;;;;;;5004628;28;20085;-94
2020/12/23 09:58:13;;;;;;;3.65;2.30;;;12.90;90.20;;;;;;5005641;28;20092;-92
2020/12/23 10:00:40;;;;;;;4.00;2.42;;;12.90;90.20;;;;;;4999883;28;20037;-92
2020/12/23 10:03:06;;;;;;;3.08;2.30;;;13.00;90.20;;;;;;4989350;28;20140;-91
2020/12/23 10:05:33;;;;;;;4.20;2.60;;;13.00;90.20;;;;;;4987440;28;20342;-90
2020/12/23 10:08:00;;;;;;;4.55;3.38;;;13.00;90.20;;;;;;4986380;28;20030;-89
2020/12/23 10:10:46;;;;;;;2.78;2.03;;;13.00;90.20;;;;;;4991520;28;20321;-89
2020/12/23 10:13:12;;;;;;;3.85;2.45;;;13.00;90.20;;;;;;4991377;28;20106;-89
2020/12/23 10:15:37;;;;;;;2.17;1.90;;;13.00;90.20;;;;;;4992416;28;20105;-90
2020/12/23 10:18:31;;;;;;;;;;;;;;;;;;;;;
2020/12/23 10:20:58;;;;;;;2.80;2.50;;;13.00;90.20;;;;;;4968499;28;20042;-89
2020/12/23 10:23:33;;;;;;;2.70;2.20;;;13.00;90.20;;;;;;4969200;28;20089;-89
2020/12/23 10:25:59;;;;;;;2.78;2.10;;;13.00;90.20;;;;;;4984038;28;20050;-91
2020/12/23 10:28:27;;;;;;;3.60;2.42;;;13.00;90.20;;;;;;4981566;28;20033;-90
2020/12/23 10:30:53;;;;;;;3.15;2.58;;;13.00;90.20;;;;;;4986361;28;21868;-91
2020/12/23 10:33:19;;;;;;;3.65;2.70;;;13.00;90.20;;;;;;4987419;28;20189;-91
2020/12/23 10:35:50;;;;;;;3.08;2.35;;;13.00;90.20;;;;;;4987093;28;20091;-91
2020/12/23 10:38:16;;;;;;;3.10;2.70;;;13.10;90.20;;;;;;4981450;28;20058;-90
2020/12/23 10:40:44;;;;;;;3.58;3.05;;;13.10;90.10;;;;;;4987142;28;20053;-89
2020/12/23 10:43:09;;;;;;;2.50;2.20;;;13.00;90.10;;;;;;4991311;28;20058;-90
2020/12/23 10:48:58;;;;;;;3.30;2.70;;;13.00;90.20;;;;;;4987537;28;20061;-91
2020/12/23 10:51:24;;;;;;;1.75;1.52;;;13.00;90.20;;;;;;4986424;28;20125;-90
2020/12/23 10:53:49;;;;;;;3.05;2.40;;;13.00;90.20;;;;;;4975860;28;20034;-89
2020/12/23 11:03:07;;;;;;;3.30;3.00;;;13.10;90.20;;;;;;5235994;23;20053;-92
2020/12/23 11:05:33;;;;;;;3.25;2.40;;;13.10;90.10;;;;;;5005508;28;20034;-95
2020/12/23 11:07:58;;;;;;;4.40;3.13;;;13.00;90.10;;;;;;5008531;28;20543;-93
2020/12/23 11:10:24;;;;;;;5.78;3.15;;;13.00;90.10;;;;;;5006491;28;20530;-93
2020/12/23 11:12:49;;;;;;;4.15;3.65;;;13.00;90.20;;;;;;4989818;28;20030;-93
2020/12/23 11:15:16;;;;;;;3.38;2.58;;;13.00;90.20;;;;;;5001468;28;20113;-94
2020/12/23 11:17:42;;;;;;;2.97;2.33;;;13.00;90.20;;;;;;4970037;28;20050;-94
2020/12/23 11:20:08;;;;;;;2.35;2.15;;;13.00;90.20;;;;;;4984629;28;20026;-94
2020/12/23 11:22:33;;;;;;;3.25;2.50;;;13.00;90.20;;;;;;4962591;28;20453;-94
2020/12/23 11:24:59;;;;;;;1.73;1.35;;;13.00;90.20;;;;;;4962760;28;20451;-94
2020/12/23 11:27:25;;;;;;;2.15;1.75;;;13.00;90.20;;;;;;4975893;28;20734;-94
2020/12/23 11:29:50;;;;;;;2.22;1.88;;;13.00;90.20;;;;;;4996629;28;20038;-93
2020/12/23 11:32:16;;;;;;;1.92;1.80;;;13.00;90.20;;;;;;4986409;28;20019;-93
2020/12/23 11:34:41;;;;;;;2.10;1.90;;;13.00;90.20;;;;;;4989762;28;20022;-93
2020/12/23 11:37:07;;;;;;;1.80;1.70;;;13.10;90.20;;;;;;4992834;28;20041;-95
2020/12/23 11:39:33;;;;;;;1.70;1.60;;;13.10;90.10;;;;;;4994343;28;20023;-94
2020/12/23 11:42:00;;;;;;;1.88;1.63;;;13.10;90.10;;;;;;4972745;28;20027;-92
2020/12/23 11:44:27;;;;;;;2.08;1.88;;;13.20;90.10;;;;;;4974714;28;20033;-93
2020/12/23 11:46:53;;;;;;;2.63;2.00;;;13.20;90.10;;;;;;4995735;28;20033;-94
2020/12/23 11:49:18;;;;;;;2.10;1.90;;;13.30;90.10;;;;;;4985556;28;20025;-95
2020/12/23 11:51:46;;;;;;;1.70;1.60;;;13.30;90.10;;;;;;4987690;28;20034;-95
2020/12/23 11:54:12;;;;;;;2.17;1.98;;;13.30;90.00;;;;;;4986202;28;20081;-93
2020/12/23 11:56:37;;;;;;;2.08;1.88;;;13.30;90.00;;;;;;4978138;28;20038;-93
2020/12/23 11:59:04;;;;;;;2.60;2.40;;;13.30;90.00;;;;;;4990097;28;20108;-94
2020/12/23 12:01:29;;;;;;;3.10;1.85;;;13.30;90.00;;;;;;4990628;28;20023;-94
2020/12/23 12:03:55;;;;;;;2.08;1.88;;;13.40;90.00;;;;;;4994540;28;20045;-93
2020/12/23 12:06:22;;;;;;;2.30;2.10;;;13.40;90.00;;;;;;5006786;28;20030;-93
2020/12/23 12:08:48;;;;;;;3.70;3.28;;;13.30;89.80;;;;;;4988201;28;20018;-92
2020/12/23 12:11:17;;;;;;;1.65;1.55;;;13.30;89.80;;;;;;4998903;28;20020;-93
2020/12/23 12:13:44;;;;;;;2.13;1.92;;;13.20;89.90;;;;;;4970334;28;20039;-89
2020/12/23 12:16:09;;;;;;;2.85;2.40;;;13.20;90.00;;;;;;4991028;28;20053;-89
2020/12/23 12:18:35;;;;;;;3.15;2.50;;;13.20;90.00;;;;;;4999403;28;20664;-89
2020/12/23 12:21:02;;;;;;;2.90;2.60;;;13.20;90.00;;;;;;4984923;28;20038;-90
2020/12/23 12:23:27;;;;;;;2.08;1.90;;;13.20;90.00;;;;;;4957945;28;20027;-91
2020/12/23 12:25:53;;;;;;;2.70;2.50;;;13.10;89.90;;;;;;4972744;28;20391;-90
2020/12/23 12:28:19;;;;;;;2.85;2.45;;;13.20;90.00;;;;;;4986740;28;20101;-88
2020/12/23 12:30:44;;;;;;;2.60;2.40;;;13.20;90.00;;;;;;4974139;28;20030;-95
2020/12/23 12:33:10;;;;;;;2.05;1.85;;;13.10;90.00;;;;;;4986238;28;20022;-89
2020/12/23 12:35:35;;;;;;;2.20;2.00;;;13.20;90.00;;;;;;4969059;28;20040;-88
2020/12/23 12:38:10;;;;;;;2.50;2.30;;;13.20;90.00;;;;;;4983102;28;21352;-91
2020/12/23 12:43:14;;;;;;;2.72;2.30;;;13.20;90.00;;;;;;5107306;23;20054;-90
2020/12/23 12:51:33;;;;;;;2.15;1.90;;;13.20;90.00;;;;;;5345466;23;20061;-89
2020/12/23 13:04:19;;;;;;;1.73;1.42;;;13.20;89.90;;;;;;5171699;23;20061;-89
2020/12/23 13:06:44;;;;;;;2.22;2.03;;;13.20;89.90;;;;;;5001134;28;20129;-86
2020/12/23 13:09:16;;;;;;;1.80;1.70;;;13.20;90.00;;;;;;4984020;28;20295;-90
2020/12/23 13:11:42;;;;;;;1.75;1.65;;;13.20;90.00;;;;;;4983836;28;20148;-88
2020/12/23 13:14:27;;;;;;;1.65;1.55;;;13.20;90.00;;;;;;4967390;28;20034;-87
2020/12/23 13:17:04;;;;;;;2.15;1.60;;;13.30;90.00;;;;;;4966347;28;20152;-85
2020/12/23 13:19:30;;;;;;;2.40;2.20;;;13.30;90.00;;;;;;4966617;28;20059;-87